sensor_id;sensor_type;location;lat;lon;timestamp;pressure;altitude;pressure_sealevel;temperature;humidity
4346;BME280;2186;49.866;7.986;2023-03-23T00:02:05;99417.94;;;14.41;71.97
4346;BME280;2186;49.866;7.986;2023-03-23T00:04:30;99415.03;;;14.30;73.14
4346;BME280;2186;49.866;7.986;2023-03-23T00:06:56;99410.72;;;14.27;72.58
4346;BME280;2186;49.866;7.986;2023-03-23T00:09:21;99412.38;;;14.14;73.46
4346;BME280;2186;49.866;7.986;2023-03-23T00:11:50;99403.91;;;14.21;72.37
4346;BME280;2186;49.866;7.986;2023-03-23T00:14:16;99407.47;;;14.06;74.61
4346;BME280;2186;49.866;7.986;2023-03-23T00:16:41;99398.25;;;14.12;73.07
4346;BME280;2186;49.866;7.986;2023-03-23T00:19:10;99399.19;;;14.27;72.11
4346;BME280;2186;49.866;7.986;2023-03-23T00:21:39;99391.41;;;14.22;73.16
4346;BME280;2186;49.866;7.986;2023-03-23T00:24:17;99389.69;;;14.21;73.89
4346;BME280;2186;49.866;7.986;2023-03-23T00:26:46;99390.06;;;14.15;73.92
4346;BME280;2186;49.866;7.986;2023-03-23T00:29:13;99402.66;;;14.13;74.07
4346;BME280;2186;49.866;7.986;2023-03-23T00:31:39;99393.81;;;14.11;75.67
4346;BME280;2186;49.866;7.986;2023-03-23T00:34:05;99388.16;;;14.01;76.33
4346;BME280;2186;49.866;7.986;2023-03-23T00:36:32;99388.75;;;14.06;75.81
4346;BME280;2186;49.866;7.986;2023-03-23T00:39:00;99380.09;;;13.87;76.71
4346;BME280;2186;49.866;7.986;2023-03-23T00:41:28;99375.84;;;13.99;74.81
4346;BME280;2186;49.866;7.986;2023-03-23T00:43:55;99372.72;;;14.06;74.49
4346;BME280;2186;49.866;7.986;2023-03-23T00:46:22;99371.53;;;14.12;73.91
4346;BME280;2186;49.866;7.986;2023-03-23T00:48:47;99378.91;;;14.22;72.14
4346;BME280;2186;49.866;7.986;2023-03-23T00:51:13;99374.13;;;14.43;71.29
4346;BME280;2186;49.866;7.986;2023-03-23T00:53:39;99373.69;;;14.51;71.39
4346;BME280;2186;49.866;7.986;2023-03-23T00:56:05;99363.53;;;14.42;71.04
4346;BME280;2186;49.866;7.986;2023-03-23T00:58:31;99381.16;;;14.60;70.06
4346;BME280;2186;49.866;7.986;2023-03-23T01:00:56;99381.59;;;14.68;69.80
4346;BME280;2186;49.866;7.986;2023-03-23T01:03:22;99378.66;;;14.87;68.61
4346;BME280;2186;49.866;7.986;2023-03-23T01:05:51;99377.28;;;14.80;68.54
4346;BME280;2186;49.866;7.986;2023-03-23T01:08:17;99384.09;;;14.86;68.04
4346;BME280;2186;49.866;7.986;2023-03-23T01:10:44;99394.59;;;14.89;67.23
4346;BME280;2186;49.866;7.986;2023-03-23T01:13:10;99397.00;;;14.93;66.66
4346;BME280;2186;49.866;7.986;2023-03-23T01:15:36;99388.41;;;15.02;66.47
4346;BME280;2186;49.866;7.986;2023-03-23T01:18:02;99381.91;;;15.06;66.32
4346;BME280;2186;49.866;7.986;2023-03-23T01:20:28;99370.06;;;15.25;65.27
4346;BME280;2186;49.866;7.986;2023-03-23T01:22:59;99368.91;;;15.29;64.88
4346;BME280;2186;49.866;7.986;2023-03-23T01:25:29;99375.22;;;15.28;65.13
4346;BME280;2186;49.866;7.986;2023-03-23T01:27:56;99364.53;;;15.28;64.95
4346;BME280;2186;49.866;7.986;2023-03-23T01:30:21;99376.09;;;15.14;65.23
4346;BME280;2186;49.866;7.986;2023-03-23T01:32:47;99371.91;;;15.24;64.94
4346;BME280;2186;49.866;7.986;2023-03-23T01:35:13;99365.38;;;15.43;65.66
4346;BME280;2186;49.866;7.986;2023-03-23T01:37:39;99360.44;;;15.22;68.01
4346;BME280;2186;49.866;7.986;2023-03-23T01:40:05;99358.00;;;15.18;68.32
4346;BME280;2186;49.866;7.986;2023-03-23T01:42:33;99354.88;;;15.11;68.74
4346;BME280;2186;49.866;7.986;2023-03-23T01:47:46;99352.00;;;15.14;68.09
4346;BME280;2186;49.866;7.986;2023-03-23T01:50:12;99353.41;;;15.05;68.13
4346;BME280;2186;49.866;7.986;2023-03-23T01:52:38;99352.09;;;15.13;67.30
4346;BME280;2186;49.866;7.986;2023-03-23T01:55:04;99349.41;;;15.13;67.72
4346;BME280;2186;49.866;7.986;2023-03-23T01:57:31;99353.63;;;15.17;67.23
4346;BME280;2186;49.866;7.986;2023-03-23T01:59:59;99349.78;;;15.21;67.22
4346;BME280;2186;49.866;7.986;2023-03-23T02:02:26;99352.09;;;15.27;66.87
4346;BME280;2186;49.866;7.986;2023-03-23T02:04:55;99351.91;;;15.30;67.38
4346;BME280;2186;49.866;7.986;2023-03-23T02:07:22;99347.22;;;15.19;67.91
4346;BME280;2186;49.866;7.986;2023-03-23T02:09:50;99345.28;;;15.21;67.33
4346;BME280;2186;49.866;7.986;2023-03-23T02:12:15;99338.91;;;15.09;68.88
4346;BME280;2186;49.866;7.986;2023-03-23T02:14:41;99345.38;;;15.05;71.00
4346;BME280;2186;49.866;7.986;2023-03-23T02:17:10;99341.66;;;14.94;71.62
4346;BME280;2186;49.866;7.986;2023-03-23T02:20:01;99331.84;;;14.94;73.70
4346;BME280;2186;49.866;7.986;2023-03-23T02:28:08;99328.56;;;14.89;74.68
4346;BME280;2186;49.866;7.986;2023-03-23T02:30:43;99323.88;;;15.07;74.75
4346;BME280;2186;49.866;7.986;2023-03-23T02:33:38;99323.31;;;14.88;75.61
4346;BME280;2186;49.866;7.986;2023-03-23T02:38:57;99328.38;;;15.06;74.94
4346;BME280;2186;49.866;7.986;2023-03-23T02:41:30;99316.81;;;15.06;75.11
4346;BME280;2186;49.866;7.986;2023-03-23T02:43:57;99325.53;;;14.95;74.55
4346;BME280;2186;49.866;7.986;2023-03-23T02:46:25;99323.63;;;14.97;74.75
4346;BME280;2186;49.866;7.986;2023-03-23T02:48:53;99325.91;;;15.03;75.04
4346;BME280;2186;49.866;7.986;2023-03-23T02:51:22;99310.03;;;14.86;75.13
4346;BME280;2186;49.866;7.986;2023-03-23T02:53:50;99308.97;;;15.17;74.68
4346;BME280;2186;49.866;7.986;2023-03-23T02:56:18;99307.06;;;14.91;75.64
4346;BME280;2186;49.866;7.986;2023-03-23T02:58:44;99305.53;;;14.87;75.17
4346;BME280;2186;49.866;7.986;2023-03-23T03:04:13;99299.34;;;14.86;76.01
4346;BME280;2186;49.866;7.986;2023-03-23T03:09:34;99300.28;;;14.85;77.97
4346;BME280;2186;49.866;7.986;2023-03-23T03:12:07;99295.50;;;14.76;78.52
4346;BME280;2186;49.866;7.986;2023-03-23T03:15:12;99292.38;;;14.84;77.71
4346;BME280;2186;49.866;7.986;2023-03-23T03:17:40;99294.94;;;14.71;78.87
4346;BME280;2186;49.866;7.986;2023-03-23T03:20:09;99311.16;;;14.54;80.57
4346;BME280;2186;49.866;7.986;2023-03-23T03:22:38;99305.97;;;14.50;80.98
4346;BME280;2186;49.866;7.986;2023-03-23T03:25:07;99299.19;;;14.45;82.27
4346;BME280;2186;49.866;7.986;2023-03-23T03:27:34;99294.25;;;14.37;82.94
4346;BME280;2186;49.866;7.986;2023-03-23T03:30:03;99298.25;;;14.30;84.41
4346;BME280;2186;49.866;7.986;2023-03-23T03:32:34;99304.25;;;14.19;86.98
4346;BME280;2186;49.866;7.986;2023-03-23T03:35:04;99301.03;;;13.99;93.18
4346;BME280;2186;49.866;7.986;2023-03-23T03:37:38;99307.69;;;13.91;93.65
4346;BME280;2186;49.866;7.986;2023-03-23T03:40:12;99314.41;;;13.83;94.73
4346;BME280;2186;49.866;7.986;2023-03-23T03:42:38;99319.34;;;13.75;95.75
4346;BME280;2186;49.866;7.986;2023-03-23T03:45:05;99317.63;;;13.74;94.22
4346;BME280;2186;49.866;7.986;2023-03-23T03:47:31;99320.09;;;13.77;94.65
4346;BME280;2186;49.866;7.986;2023-03-23T03:49:56;99322.59;;;13.80;92.13
4346;BME280;2186;49.866;7.986;2023-03-23T03:52:21;99317.16;;;13.81;90.40
4346;BME280;2186;49.866;7.986;2023-03-23T03:54:47;99327.47;;;14.03;87.36
4346;BME280;2186;49.866;7.986;2023-03-23T03:57:12;99323.09;;;14.32;84.85
4346;BME280;2186;49.866;7.986;2023-03-23T03:59:38;99318.69;;;14.31;83.97
4346;BME280;2186;49.866;7.986;2023-03-23T04:02:03;99321.56;;;14.28;82.62
4346;BME280;2186;49.866;7.986;2023-03-23T04:04:29;99329.28;;;14.48;82.70
4346;BME280;2186;49.866;7.986;2023-03-23T04:06:54;99327.34;;;14.50;81.93
4346;BME280;2186;49.866;7.986;2023-03-23T04:09:19;99346.38;;;14.46;82.90
4346;BME280;2186;49.866;7.986;2023-03-23T04:11:46;99336.69;;;14.43;81.80
4346;BME280;2186;49.866;7.986;2023-03-23T04:14:12;99336.47;;;14.32;82.99
4346;BME280;2186;49.866;7.986;2023-03-23T04:16:37;99325.94;;;14.45;82.08
4346;BME280;2186;49.866;7.986;2023-03-23T04:19:03;99334.16;;;14.26;82.54
4346;BME280;2186;49.866;7.986;2023-03-23T04:21:29;99335.50;;;14.33;82.84
4346;BME280;2186;49.866;7.986;2023-03-23T04:23:55;99344.09;;;14.38;82.20
4346;BME280;2186;49.866;7.986;2023-03-23T04:26:26;99351.81;;;14.29;82.25
4346;BME280;2186;49.866;7.986;2023-03-23T04:28:51;99357.41;;;14.40;82.40
4346;BME280;2186;49.866;7.986;2023-03-23T04:31:17;99351.19;;;14.39;82.61
4346;BME280;2186;49.866;7.986;2023-03-23T04:33:42;99346.00;;;14.36;82.43
4346;BME280;2186;49.866;7.986;2023-03-23T04:36:08;99351.91;;;14.27;83.14
4346;BME280;2186;49.866;7.986;2023-03-23T04:38:33;99348.81;;;14.19;84.08
4346;BME280;2186;49.866;7.986;2023-03-23T04:40:59;99345.25;;;14.34;83.77
4346;BME280;2186;49.866;7.986;2023-03-23T04:43:27;99339.91;;;14.34;83.91
4346;BME280;2186;49.866;7.986;2023-03-23T04:45:57;99345.09;;;14.21;84.89
4346;BME280;2186;49.866;7.986;2023-03-23T04:48:28;99356.75;;;14.20;85.34
4346;BME280;2186;49.866;7.986;2023-03-23T04:50:55;99349.34;;;14.26;84.96
4346;BME280;2186;49.866;7.986;2023-03-23T04:53:20;99350.25;;;14.24;85.48
4346;BME280;2186;49.866;7.986;2023-03-23T04:55:47;99352.88;;;14.10;85.95
4346;BME280;2186;49.866;7.986;2023-03-23T04:58:15;99352.38;;;14.04;86.65
4346;BME280;2186;49.866;7.986;2023-03-23T05:00:41;99355.50;;;14.12;87.27
4346;BME280;2186;49.866;7.986;2023-03-23T05:03:09;99362.03;;;14.06;87.45
4346;BME280;2186;49.866;7.986;2023-03-23T05:05:36;99352.66;;;13.99;87.92
4346;BME280;2186;49.866;7.986;2023-03-23T05:08:01;99359.03;;;13.97;88.57
4346;BME280;2186;49.866;7.986;2023-03-23T05:10:27;99364.44;;;14.11;88.58
4346;BME280;2186;49.866;7.986;2023-03-23T05:12:53;99360.16;;;13.92;88.99
4346;BME280;2186;49.866;7.986;2023-03-23T05:15:18;99355.84;;;14.06;88.95
4346;BME280;2186;49.866;7.986;2023-03-23T05:17:44;99364.53;;;14.09;89.33
4346;BME280;2186;49.866;7.986;2023-03-23T05:20:11;99356.97;;;14.02;89.31
4346;BME280;2186;49.866;7.986;2023-03-23T05:22:38;99358.59;;;14.04;89.16
4346;BME280;2186;49.866;7.986;2023-03-23T05:25:05;99351.78;;;14.14;89.56
4346;BME280;2186;49.866;7.986;2023-03-23T05:27:31;99355.84;;;14.06;89.77
4346;BME280;2186;49.866;7.986;2023-03-23T05:29:58;99368.16;;;13.92;90.28
4346;BME280;2186;49.866;7.986;2023-03-23T05:32:27;99363.19;;;13.86;91.04
4346;BME280;2186;49.866;7.986;2023-03-23T05:35:00;99365.88;;;13.86;90.86
4346;BME280;2186;49.866;7.986;2023-03-23T05:37:27;99369.50;;;13.85;91.91
4346;BME280;2186;49.866;7.986;2023-03-23T05:39:58;99372.06;;;13.87;91.70
4346;BME280;2186;49.866;7.986;2023-03-23T05:42:27;99371.38;;;13.99;91.44
4346;BME280;2186;49.866;7.986;2023-03-23T05:44:52;99375.50;;;13.89;92.27
4346;BME280;2186;49.866;7.986;2023-03-23T05:47:18;99386.78;;;13.94;91.98
4346;BME280;2186;49.866;7.986;2023-03-23T05:49:43;99383.00;;;13.98;92.92
4346;BME280;2186;49.866;7.986;2023-03-23T05:52:09;99374.13;;;13.82;92.70
4346;BME280;2186;49.866;7.986;2023-03-23T05:54:34;99383.94;;;13.81;93.30
4346;BME280;2186;49.866;7.986;2023-03-23T05:57:00;99368.94;;;13.79;94.17
4346;BME280;2186;49.866;7.986;2023-03-23T05:59:25;99379.81;;;13.91;93.83
4346;BME280;2186;49.866;7.986;2023-03-23T06:01:51;99379.06;;;13.74;94.46
4346;BME280;2186;49.866;7.986;2023-03-23T06:04:16;99382.03;;;13.68;95.07
4346;BME280;2186;49.866;7.986;2023-03-23T06:06:42;99382.66;;;13.88;94.84
4346;BME280;2186;49.866;7.986;2023-03-23T06:09:09;99386.19;;;13.89;94.09
4346;BME280;2186;49.866;7.986;2023-03-23T06:11:35;99391.00;;;13.67;95.54
4346;BME280;2186;49.866;7.986;2023-03-23T06:14:00;99387.91;;;13.74;95.33
4346;BME280;2186;49.866;7.986;2023-03-23T06:16:26;99406.16;;;13.82;96.17
4346;BME280;2186;49.866;7.986;2023-03-23T06:18:51;99405.22;;;13.83;95.02
4346;BME280;2186;49.866;7.986;2023-03-23T06:21:17;99395.50;;;13.82;95.57
4346;BME280;2186;49.866;7.986;2023-03-23T06:23:47;99387.91;;;13.90;94.68
4346;BME280;2186;49.866;7.986;2023-03-23T06:26:14;99397.75;;;13.74;95.50
4346;BME280;2186;49.866;7.986;2023-03-23T06:28:42;99406.44;;;13.93;94.84
4346;BME280;2186;49.866;7.986;2023-03-23T06:31:07;99409.47;;;14.03;94.17
4346;BME280;2186;49.866;7.986;2023-03-23T06:33:34;99416.69;;;14.01;95.05
4346;BME280;2186;49.866;7.986;2023-03-23T06:36:01;99415.31;;;13.93;95.43
4346;BME280;2186;49.866;7.986;2023-03-23T06:38:27;99411.78;;;13.93;95.64
4346;BME280;2186;49.866;7.986;2023-03-23T06:40:53;99410.81;;;14.10;94.72
4346;BME280;2186;49.866;7.986;2023-03-23T06:43:19;99406.28;;;14.12;94.65
4346;BME280;2186;49.866;7.986;2023-03-23T06:45:45;99408.44;;;13.89;96.13
4346;BME280;2186;49.866;7.986;2023-03-23T06:48:10;99409.97;;;14.09;95.26
4346;BME280;2186;49.866;7.986;2023-03-23T06:50:36;99408.13;;;14.10;95.45
4346;BME280;2186;49.866;7.986;2023-03-23T06:53:01;99408.56;;;14.18;94.69
4346;BME280;2186;49.866;7.986;2023-03-23T06:55:27;99405.63;;;14.22;94.48
4346;BME280;2186;49.866;7.986;2023-03-23T06:57:52;99413.41;;;14.27;94.56
4346;BME280;2186;49.866;7.986;2023-03-23T07:00:17;99404.06;;;14.50;94.85
4346;BME280;2186;49.866;7.986;2023-03-23T07:02:43;99415.56;;;14.20;94.73
4346;BME280;2186;49.866;7.986;2023-03-23T07:05:10;99409.06;;;14.24;94.73
4346;BME280;2186;49.866;7.986;2023-03-23T07:07:37;99404.69;;;14.23;95.40
4346;BME280;2186;49.866;7.986;2023-03-23T07:10:04;99410.56;;;14.14;95.16
4346;BME280;2186;49.866;7.986;2023-03-23T07:12:29;99412.88;;;14.20;95.29
4346;BME280;2186;49.866;7.986;2023-03-23T07:14:55;99414.22;;;14.43;94.07
4346;BME280;2186;49.866;7.986;2023-03-23T07:17:21;99425.97;;;14.25;94.53
4346;BME280;2186;49.866;7.986;2023-03-23T07:19:46;99432.44;;;14.52;93.97
4346;BME280;2186;49.866;7.986;2023-03-23T07:22:12;99433.75;;;14.45;93.86
4346;BME280;2186;49.866;7.986;2023-03-23T07:24:37;99425.81;;;14.28;94.89
4346;BME280;2186;49.866;7.986;2023-03-23T07:27:03;99422.19;;;14.29;94.74
4346;BME280;2186;49.866;7.986;2023-03-23T07:29:28;99421.72;;;14.37;93.96
4346;BME280;2186;49.866;7.986;2023-03-23T07:31:54;99430.34;;;14.58;93.29
4346;BME280;2186;49.866;7.986;2023-03-23T07:34:20;99435.88;;;14.39;92.89
4346;BME280;2186;49.866;7.986;2023-03-23T07:36:45;99438.47;;;14.56;92.79
4346;BME280;2186;49.866;7.986;2023-03-23T07:39:12;99432.56;;;14.65;92.75
4346;BME280;2186;49.866;7.986;2023-03-23T07:41:38;99435.09;;;14.52;92.93
4346;BME280;2186;49.866;7.986;2023-03-23T07:44:04;99445.41;;;14.44;93.03
4346;BME280;2186;49.866;7.986;2023-03-23T07:46:30;99447.91;;;14.77;92.16
4346;BME280;2186;49.866;7.986;2023-03-23T07:48:56;99451.75;;;14.58;91.64
4346;BME280;2186;49.866;7.986;2023-03-23T07:51:22;99459.09;;;14.54;92.16
4346;BME280;2186;49.866;7.986;2023-03-23T07:53:48;99446.59;;;14.55;91.74
4346;BME280;2186;49.866;7.986;2023-03-23T07:56:15;99451.38;;;14.64;91.32
4346;BME280;2186;49.866;7.986;2023-03-23T07:58:45;99450.81;;;14.59;91.52
4346;BME280;2186;49.866;7.986;2023-03-23T08:01:10;99457.91;;;14.74;90.97
4346;BME280;2186;49.866;7.986;2023-03-23T08:03:36;99450.44;;;14.65;90.97
4346;BME280;2186;49.866;7.986;2023-03-23T08:06:03;99467.75;;;14.73;91.12
4346;BME280;2186;49.866;7.986;2023-03-23T08:08:29;99464.94;;;14.91;90.79
4346;BME280;2186;49.866;7.986;2023-03-23T08:10:55;99471.69;;;14.68;90.67
4346;BME280;2186;49.866;7.986;2023-03-23T08:13:21;99469.63;;;14.87;90.70
4346;BME280;2186;49.866;7.986;2023-03-23T08:15:46;99472.88;;;14.62;91.24
4346;BME280;2186;49.866;7.986;2023-03-23T08:18:11;99478.03;;;14.65;91.04
4346;BME280;2186;49.866;7.986;2023-03-23T08:20:37;99487.34;;;14.74;91.11
4346;BME280;2186;49.866;7.986;2023-03-23T08:23:03;99487.94;;;14.79;90.69
4346;BME280;2186;49.866;7.986;2023-03-23T08:25:29;99483.91;;;14.72;90.45
4346;BME280;2186;49.866;7.986;2023-03-23T08:27:57;99483.97;;;14.86;89.58
4346;BME280;2186;49.866;7.986;2023-03-23T08:30:23;99487.81;;;14.96;89.32
4346;BME280;2186;49.866;7.986;2023-03-23T08:32:50;99492.66;;;14.90;89.56
4346;BME280;2186;49.866;7.986;2023-03-23T08:35:16;99485.53;;;15.04;88.59
4346;BME280;2186;49.866;7.986;2023-03-23T08:37:42;99491.59;;;15.08;88.42
4346;BME280;2186;49.866;7.986;2023-03-23T08:40:09;99490.69;;;15.07;88.47
4346;BME280;2186;49.866;7.986;2023-03-23T08:42:40;99484.22;;;15.11;87.73
4346;BME280;2186;49.866;7.986;2023-03-23T08:45:07;99492.44;;;15.08;85.91
4346;BME280;2186;49.866;7.986;2023-03-23T08:47:34;99498.84;;;15.20;83.22
4346;BME280;2186;49.866;7.986;2023-03-23T08:50:01;99485.69;;;15.31;83.04
4346;BME280;2186;49.866;7.986;2023-03-23T08:52:28;99478.59;;;15.30;81.75
4346;BME280;2186;49.866;7.986;2023-03-23T08:54:54;99493.06;;;15.56;81.58
4346;BME280;2186;49.866;7.986;2023-03-23T08:57:20;99501.66;;;15.63;79.43
4346;BME280;2186;49.866;7.986;2023-03-23T08:59:45;99498.38;;;15.72;78.67
4346;BME280;2186;49.866;7.986;2023-03-23T09:02:11;99498.97;;;15.63;79.29
4346;BME280;2186;49.866;7.986;2023-03-23T09:04:38;99509.00;;;15.74;79.37
4346;BME280;2186;49.866;7.986;2023-03-23T09:07:04;99500.28;;;15.70;77.32
4346;BME280;2186;49.866;7.986;2023-03-23T09:09:29;99505.09;;;15.79;78.72
4346;BME280;2186;49.866;7.986;2023-03-23T09:11:55;99515.41;;;15.85;79.93
4346;BME280;2186;49.866;7.986;2023-03-23T09:14:20;99514.34;;;15.88;79.74
4346;BME280;2186;49.866;7.986;2023-03-23T09:16:45;99508.88;;;15.89;79.45
4346;BME280;2186;49.866;7.986;2023-03-23T09:19:11;99509.09;;;15.86;79.13
4346;BME280;2186;49.866;7.986;2023-03-23T09:21:38;99514.09;;;15.92;78.79
4346;BME280;2186;49.866;7.986;2023-03-23T09:24:04;99514.53;;;16.13;78.95
4346;BME280;2186;49.866;7.986;2023-03-23T09:26:30;99508.53;;;15.81;80.41
4346;BME280;2186;49.866;7.986;2023-03-23T09:28:56;99518.94;;;15.72;81.82
4346;BME280;2186;49.866;7.986;2023-03-23T09:31:23;99511.00;;;15.84;81.65
4346;BME280;2186;49.866;7.986;2023-03-23T09:33:51;99522.69;;;15.69;83.80
4346;BME280;2186;49.866;7.986;2023-03-23T09:36:18;99519.59;;;15.61;85.46
4346;BME280;2186;49.866;7.986;2023-03-23T09:38:46;99518.25;;;15.54;85.61
4346;BME280;2186;49.866;7.986;2023-03-23T09:41:36;99504.88;;;15.68;85.00
4346;BME280;2186;49.866;7.986;2023-03-23T09:47:03;99510.56;;;15.48;85.60
4346;BME280;2186;49.866;7.986;2023-03-23T09:49:43;99525.56;;;15.66;85.86
4346;BME280;2186;49.866;7.986;2023-03-23T09:52:13;99522.78;;;15.82;85.18
4346;BME280;2186;49.866;7.986;2023-03-23T09:54:42;99519.91;;;15.70;84.96
4346;BME280;2186;49.866;7.986;2023-03-23T09:57:16;99518.75;;;15.60;83.81
4346;BME280;2186;49.866;7.986;2023-03-23T10:00:06;99520.81;;;15.55;82.69
4346;BME280;2186;49.866;7.986;2023-03-23T10:05:47;99520.63;;;15.44;84.06
4346;BME280;2186;49.866;7.986;2023-03-23T10:08:18;99526.00;;;15.58;84.82
4346;BME280;2186;49.866;7.986;2023-03-23T10:11:04;99530.38;;;15.45;85.55
4346;BME280;2186;49.866;7.986;2023-03-23T10:14:01;99531.22;;;15.46;86.66
4346;BME280;2186;49.866;7.986;2023-03-23T10:16:34;99531.22;;;15.46;87.42
4346;BME280;2186;49.866;7.986;2023-03-23T10:19:12;99530.16;;;15.34;87.14
4346;BME280;2186;49.866;7.986;2023-03-23T10:21:47;99540.53;;;15.10;88.29
4346;BME280;2186;49.866;7.986;2023-03-23T10:24:20;99540.38;;;15.27;87.56
4346;BME280;2186;49.866;7.986;2023-03-23T10:27:04;99538.56;;;15.28;88.28
4346;BME280;2186;49.866;7.986;2023-03-23T10:29:35;99539.63;;;15.25;87.55
4346;BME280;2186;49.866;7.986;2023-03-23T10:32:05;99533.03;;;15.45;87.66
4346;BME280;2186;49.866;7.986;2023-03-23T10:37:17;99538.28;;;15.62;85.82
4346;BME280;2186;49.866;7.986;2023-03-23T10:39:54;99533.88;;;15.76;85.17
4346;BME280;2186;49.866;7.986;2023-03-23T10:42:25;99534.75;;;15.76;84.76
4346;BME280;2186;49.866;7.986;2023-03-23T10:44:52;99528.06;;;15.83;83.69
4346;BME280;2186;49.866;7.986;2023-03-23T10:47:17;99533.41;;;15.97;83.28
4346;BME280;2186;49.866;7.986;2023-03-23T10:52:34;99530.63;;;15.99;82.10
4346;BME280;2186;49.866;7.986;2023-03-23T10:57:30;99521.72;;;16.13;80.51
4346;BME280;2186;49.866;7.986;2023-03-23T11:00:05;99522.69;;;15.83;81.44
4346;BME280;2186;49.866;7.986;2023-03-23T11:02:38;99530.34;;;16.04;80.83
4346;BME280;2186;49.866;7.986;2023-03-23T11:07:59;99538.47;;;15.74;81.82
4346;BME280;2186;49.866;7.986;2023-03-23T11:10:37;99538.97;;;15.66;83.03
4346;BME280;2186;49.866;7.986;2023-03-23T11:13:04;99549.59;;;15.67;83.13
4346;BME280;2186;49.866;7.986;2023-03-23T11:15:37;99557.91;;;15.63;83.57
4346;BME280;2186;49.866;7.986;2023-03-23T11:18:06;99553.97;;;15.68;84.25
4346;BME280;2186;49.866;7.986;2023-03-23T11:20:37;99553.78;;;15.72;84.79
4346;BME280;2186;49.866;7.986;2023-03-23T11:23:24;99564.03;;;15.79;84.78
4346;BME280;2186;49.866;7.986;2023-03-23T11:25:57;99564.16;;;16.06;84.34
4346;BME280;2186;49.866;7.986;2023-03-23T11:28:32;99568.66;;;16.20;83.42
4346;BME280;2186;49.866;7.986;2023-03-23T11:31:02;99571.78;;;15.98;83.85
4346;BME280;2186;49.866;7.986;2023-03-23T11:33:30;99563.47;;;16.31;83.31
4346;BME280;2186;49.866;7.986;2023-03-23T11:35:56;99556.56;;;15.98;83.20
4346;BME280;2186;49.866;7.986;2023-03-23T11:38:23;99553.78;;;16.00;84.34
4346;BME280;2186;49.866;7.986;2023-03-23T11:40:52;99554.28;;;16.07;84.36
4346;BME280;2186;49.866;7.986;2023-03-23T11:43:23;99551.22;;;15.98;84.73
4346;BME280;2186;49.866;7.986;2023-03-23T11:45:56;99565.66;;;15.82;84.65
4346;BME280;2186;49.866;7.986;2023-03-23T11:48:58;99553.44;;;16.06;84.40
4346;BME280;2186;49.866;7.986;2023-03-23T11:51:41;99552.47;;;15.93;84.88
4346;BME280;2186;49.866;7.986;2023-03-23T11:56:52;99545.13;;;15.52;84.66
4346;BME280;2186;49.866;7.986;2023-03-23T11:59:29;99546.81;;;15.69;84.79
4346;BME280;2186;49.866;7.986;2023-03-23T12:04:56;99541.75;;;15.79;86.22
4346;BME280;2186;49.866;7.986;2023-03-23T12:07:56;99520.22;;;15.66;86.54
4346;BME280;2186;49.866;7.986;2023-03-23T12:10:38;99528.63;;;15.88;85.77
4346;BME280;2186;49.866;7.986;2023-03-23T12:13:22;99517.63;;;15.79;85.81
4346;BME280;2186;49.866;7.986;2023-03-23T12:16:19;99511.00;;;15.84;87.06
4346;BME280;2186;49.866;7.986;2023-03-23T12:19:03;99506.81;;;15.94;85.70
4346;BME280;2186;49.866;7.986;2023-03-23T12:27:07;99487.84;;;15.97;85.24
4346;BME280;2186;49.866;7.986;2023-03-23T12:34:49;99487.69;;;16.54;83.03
4346;BME280;2186;49.866;7.986;2023-03-23T12:40:23;99497.06;;;16.76;81.64
4346;BME280;2186;49.866;7.986;2023-03-23T12:43:20;99480.31;;;16.58;81.40
4346;BME280;2186;49.866;7.986;2023-03-23T12:49:09;99492.22;;;16.81;80.77
4346;BME280;2186;49.866;7.986;2023-03-23T12:51:58;99490.66;;;16.91;81.11
4346;BME280;2186;49.866;7.986;2023-03-23T12:54:40;99486.03;;;16.66;80.38
4346;BME280;2186;49.866;7.986;2023-03-23T12:57:30;99481.97;;;17.13;79.71
4346;BME280;2186;49.866;7.986;2023-03-23T13:00:20;99490.91;;;17.01;79.33
4346;BME280;2186;49.866;7.986;2023-03-23T13:02:57;99485.19;;;16.93;79.07
4346;BME280;2186;49.866;7.986;2023-03-23T13:07:55;99474.84;;;16.59;79.03
4346;BME280;2186;49.866;7.986;2023-03-23T13:10:28;99468.03;;;16.68;80.02
4346;BME280;2186;49.866;7.986;2023-03-23T13:12:55;99470.31;;;16.74;79.56
4346;BME280;2186;49.866;7.986;2023-03-23T13:18:10;99478.53;;;16.44;80.31
4346;BME280;2186;49.866;7.986;2023-03-23T13:23:37;99471.22;;;16.34;80.58
4346;BME280;2186;49.866;7.986;2023-03-23T13:26:07;99462.19;;;16.35;80.95
4346;BME280;2186;49.866;7.986;2023-03-23T13:28:56;99471.47;;;16.29;81.12
4346;BME280;2186;49.866;7.986;2023-03-23T13:31:26;99460.00;;;16.27;79.46
4346;BME280;2186;49.866;7.986;2023-03-23T13:34:00;99463.88;;;16.50;78.93
4346;BME280;2186;49.866;7.986;2023-03-23T13:36:38;99466.31;;;16.67;79.21
4346;BME280;2186;49.866;7.986;2023-03-23T13:39:06;99459.59;;;16.74;77.00
4346;BME280;2186;49.866;7.986;2023-03-23T13:42:34;99460.66;;;16.84;76.07
4346;BME280;2186;49.866;7.986;2023-03-23T13:57:53;99474.06;;;16.45;78.51
4346;BME280;2186;49.866;7.986;2023-03-23T14:03:40;99486.03;;;16.39;79.27
4346;BME280;2186;49.866;7.986;2023-03-23T14:06:07;99482.00;;;16.05;80.13
4346;BME280;2186;49.866;7.986;2023-03-23T14:08:40;99488.66;;;16.26;80.21
4346;BME280;2186;49.866;7.986;2023-03-23T14:11:31;99486.78;;;16.00;80.91
4346;BME280;2186;49.866;7.986;2023-03-23T14:19:00;99487.81;;;16.12;80.91
4346;BME280;2186;49.866;7.986;2023-03-23T14:21:40;99488.59;;;15.85;81.08
4346;BME280;2186;49.866;7.986;2023-03-23T14:24:16;99495.69;;;15.86;81.11
4346;BME280;2186;49.866;7.986;2023-03-23T14:26:43;99479.72;;;15.85;80.97
4346;BME280;2186;49.866;7.986;2023-03-23T14:29:12;99482.69;;;15.94;81.05
4346;BME280;2186;49.866;7.986;2023-03-23T14:31:38;99474.44;;;15.97;80.82
4346;BME280;2186;49.866;7.986;2023-03-23T14:34:14;99470.59;;;16.02;80.61
4346;BME280;2186;49.866;7.986;2023-03-23T14:36:41;99473.16;;;16.17;80.25
4346;BME280;2186;49.866;7.986;2023-03-23T14:39:26;99481.72;;;16.37;79.87
4346;BME280;2186;49.866;7.986;2023-03-23T14:41:54;99488.94;;;16.22;80.57
4346;BME280;2186;49.866;7.986;2023-03-23T14:44:33;99488.25;;;16.33;79.74
4346;BME280;2186;49.866;7.986;2023-03-23T14:47:05;99498.56;;;16.39;80.25
4346;BME280;2186;49.866;7.986;2023-03-23T14:49:35;99499.09;;;16.31;80.79
4346;BME280;2186;49.866;7.986;2023-03-23T14:54:35;99486.19;;;16.09;81.14
4346;BME280;2186;49.866;7.986;2023-03-23T14:57:15;99479.53;;;16.29;80.81
4346;BME280;2186;49.866;7.986;2023-03-23T14:59:47;99473.34;;;16.14;81.06
4346;BME280;2186;49.866;7.986;2023-03-23T15:02:26;99481.75;;;16.22;81.22
4346;BME280;2186;49.866;7.986;2023-03-23T15:04:56;99474.13;;;16.43;81.43